createdAt,value
2019-03-31T00:02:17.996Z,44.03
2019-03-31T00:04:51.369Z,44.15
2019-03-31T00:07:24.343Z,44.21
2019-03-31T00:09:57.274Z,44.30
2019-03-31T00:12:59.469Z,44.28
2019-03-31T00:15:35.348Z,44.22
2019-03-31T00:19:07.220Z,44.01
2019-03-31T00:21:41.583Z,43.96
2019-03-31T00:24:14.567Z,43.89
2019-03-31T00:26:50.528Z,44.05
2019-03-31T00:29:23.099Z,44.13
2019-03-31T00:31:55.605Z,44.29
2019-03-31T00:34:28.224Z,44.42
2019-03-31T00:37:01.525Z,44.47
2019-03-31T00:39:34.580Z,44.56
2019-03-31T00:42:07.090Z,44.66
2019-03-31T00:44:39.587Z,44.74
2019-03-31T00:47:12.124Z,44.82
2019-03-31T00:49:44.649Z,44.90
2019-03-31T00:52:17.795Z,45.04
2019-03-31T00:54:50.280Z,45.13
2019-03-31T00:57:23.244Z,45.18
2019-03-31T00:59:55.748Z,45.23
2019-03-31T01:02:31.571Z,45.24
2019-03-31T01:05:07.441Z,45.25
2019-03-31T01:07:41.047Z,45.23
2019-03-31T01:10:13.863Z,45.20
2019-03-31T01:12:46.852Z,45.21
2019-03-31T01:15:23.323Z,45.20
2019-03-31T01:17:56.223Z,45.17
2019-03-31T01:20:28.767Z,45.26
2019-03-31T01:23:01.805Z,45.30
2019-03-31T01:25:34.544Z,45.35
2019-03-31T01:28:07.011Z,45.37
2019-03-31T01:30:39.506Z,45.39
2019-03-31T01:33:12.099Z,45.29
2019-03-31T01:35:44.596Z,45.27
2019-03-31T01:38:17.772Z,45.31
2019-03-31T01:40:50.322Z,45.32
2019-03-31T01:43:22.832Z,45.37
2019-03-31T01:45:55.598Z,45.34
2019-03-31T01:48:28.336Z,45.36
2019-03-31T01:51:00.891Z,45.34
2019-03-31T01:53:48.488Z,45.35
2019-03-31T01:56:21.123Z,45.28
2019-03-31T01:58:53.805Z,45.25
2019-03-31T02:01:26.279Z,45.29
2019-03-31T02:04:00.475Z,45.43
2019-03-31T02:06:33.560Z,45.55
2019-03-31T02:09:14.884Z,45.77
2019-03-31T02:11:49.459Z,45.92
2019-03-31T02:14:23.231Z,46.11
2019-03-31T02:16:55.699Z,46.31
2019-03-31T02:19:28.265Z,46.44
2019-03-31T02:22:00.877Z,46.67
2019-03-31T02:24:34.498Z,46.68
2019-03-31T02:27:07.296Z,46.85
2019-03-31T02:29:39.787Z,46.83
2019-03-31T02:32:23.255Z,46.80
2019-03-31T02:34:46.521Z,46.79
2019-03-31T02:37:19.411Z,46.83
2019-03-31T02:39:52.555Z,46.92
2019-03-31T02:42:25.239Z,46.93
2019-03-31T02:44:57.879Z,46.98
2019-03-31T02:47:30.894Z,46.99
2019-03-31T02:50:03.678Z,46.95
2019-03-31T02:52:37.122Z,46.93
2019-03-31T02:55:13.828Z,46.83
2019-03-31T02:57:46.401Z,46.91
2019-03-31T03:00:19.014Z,46.90
2019-03-31T03:02:52.637Z,46.98
2019-03-31T03:05:27.955Z,46.98
2019-03-31T03:08:01.825Z,46.98
2019-03-31T03:10:37.806Z,47.00
2019-03-31T03:13:12.139Z,47.10
2019-03-31T03:16:29.045Z,47.19
2019-03-31T03:19:01.506Z,47.30
2019-03-31T03:21:34.242Z,47.37
2019-03-31T03:24:07.227Z,47.41
2019-03-31T03:26:41.270Z,47.45
2019-03-31T03:29:16.581Z,47.39
2019-03-31T03:32:01.610Z,47.46
2019-03-31T03:34:40.665Z,47.47
2019-03-31T03:37:14.894Z,47.68
2019-03-31T03:39:51.076Z,47.80
2019-03-31T03:42:24.537Z,47.83
2019-03-31T03:44:57.168Z,47.86
2019-03-31T03:47:30.235Z,47.92
2019-03-31T03:50:02.797Z,48.05
2019-03-31T03:52:35.452Z,48.00
2019-03-31T03:55:08.298Z,48.05
2019-03-31T03:57:41.782Z,48.08
2019-03-31T04:00:14.435Z,48.12
2019-03-31T04:02:47.271Z,48.11
2019-03-31T04:05:20.617Z,48.08
2019-03-31T04:07:53.141Z,48.01
2019-03-31T04:11:23.586Z,48.04
2019-03-31T04:13:57.461Z,47.97
2019-03-31T04:16:30.860Z,47.92
2019-03-31T04:19:03.990Z,48.01
2019-03-31T04:21:38.354Z,48.07
2019-03-31T04:24:10.941Z,48.15
2019-03-31T04:26:43.702Z,48.21
2019-03-31T04:29:17.236Z,48.34
2019-03-31T04:31:49.818Z,48.38
2019-03-31T04:34:22.935Z,48.51
2019-03-31T04:36:55.544Z,48.65
2019-03-31T04:39:28.608Z,48.77
2019-03-31T04:42:01.253Z,48.96
2019-03-31T04:44:34.975Z,48.99
2019-03-31T04:47:07.741Z,49.02
2019-03-31T04:49:40.534Z,48.99
2019-03-31T04:52:13.011Z,48.98
2019-03-31T04:54:45.831Z,49.00
2019-03-31T04:57:18.263Z,48.97
2019-03-31T04:59:51.489Z,48.99
2019-03-31T05:02:26.988Z,49.02
2019-03-31T05:04:58.486Z,49.02
2019-03-31T05:07:31.036Z,49.13
2019-03-31T05:10:03.677Z,49.21
2019-03-31T05:12:36.200Z,49.25
2019-03-31T05:15:09.507Z,49.29
2019-03-31T05:17:42.932Z,49.36
2019-03-31T05:20:15.567Z,49.36
2019-03-31T05:22:48.032Z,49.44
2019-03-31T05:25:20.743Z,49.56
2019-03-31T05:27:53.205Z,49.67
2019-03-31T05:30:26.310Z,49.68
2019-03-31T05:32:58.766Z,49.68
2019-03-31T05:35:31.314Z,49.69
2019-03-31T05:38:03.806Z,49.68
2019-03-31T05:40:36.457Z,49.70
2019-03-31T05:43:08.922Z,49.76
2019-03-31T05:45:42.139Z,49.89
2019-03-31T05:48:14.751Z,49.98
2019-03-31T05:50:47.254Z,50.06
2019-03-31T05:53:19.795Z,50.22
2019-03-31T05:55:52.332Z,50.26
2019-03-31T05:58:25.012Z,50.36
2019-03-31T06:00:58.240Z,50.35
2019-03-31T06:03:30.921Z,50.35
2019-03-31T06:06:03.533Z,50.30
2019-03-31T06:08:36.372Z,50.41
2019-03-31T06:11:08.946Z,50.40
2019-03-31T06:13:41.891Z,50.44
2019-03-31T06:16:14.992Z,50.44
2019-03-31T06:18:48.275Z,50.49
2019-03-31T06:21:20.779Z,50.56
2019-03-31T06:23:53.349Z,50.69
2019-03-31T06:26:26.268Z,50.88
2019-03-31T06:28:59.659Z,51.09
2019-03-31T06:31:33.027Z,51.34
2019-03-31T06:34:07.888Z,51.39
2019-03-31T06:36:40.404Z,51.42
2019-03-31T06:39:12.917Z,51.63
2019-03-31T06:41:45.435Z,51.74
2019-03-31T06:44:18.231Z,51.74
2019-03-31T06:46:51.787Z,51.66
2019-03-31T06:49:24.403Z,51.56
2019-03-31T06:51:56.932Z,51.45
2019-03-31T06:54:29.478Z,51.29
2019-03-31T06:57:02.042Z,51.16
2019-03-31T06:59:34.750Z,50.98
2019-03-31T07:02:08.008Z,50.81
2019-03-31T07:04:40.995Z,50.65
2019-03-31T07:07:13.622Z,50.49
2019-03-31T07:09:49.005Z,50.36
2019-03-31T07:12:21.754Z,50.27
2019-03-31T07:14:55.065Z,50.21
2019-03-31T07:17:27.582Z,50.15
2019-03-31T07:20:00.813Z,50.12
2019-03-31T07:22:33.347Z,50.11
2019-03-31T07:25:08.928Z,50.09
2019-03-31T07:27:41.569Z,50.03
2019-03-31T07:30:15.207Z,49.90
2019-03-31T07:32:47.851Z,49.78
2019-03-31T07:35:20.990Z,49.66
2019-03-31T07:37:53.597Z,49.50
2019-03-31T07:40:26.336Z,49.40
2019-03-31T07:43:06.082Z,49.38
2019-03-31T07:45:36.774Z,49.27
2019-03-31T07:48:09.302Z,49.15
2019-03-31T07:50:43.054Z,49.04
2019-03-31T07:53:15.537Z,48.93
2019-03-31T07:55:48.508Z,48.78
2019-03-31T07:58:21.039Z,48.69
2019-03-31T08:00:53.576Z,48.60
2019-03-31T08:03:26.416Z,48.53
2019-03-31T08:05:59.667Z,48.45
2019-03-31T08:08:32.155Z,48.38
2019-03-31T08:11:04.965Z,48.31
2019-03-31T08:13:37.691Z,48.19
2019-03-31T08:16:11.347Z,48.07
2019-03-31T08:18:43.946Z,48.00
2019-03-31T08:21:18.335Z,47.94
2019-03-31T08:23:50.838Z,47.72
2019-03-31T08:26:23.346Z,47.56
2019-03-31T08:28:58.582Z,47.47
2019-03-31T08:31:30.202Z,47.35
2019-03-31T08:34:02.741Z,47.27
2019-03-31T08:36:35.882Z,47.18
2019-03-31T08:39:11.405Z,47.16
2019-03-31T08:41:44.716Z,47.12
2019-03-31T08:44:17.562Z,47.07
2019-03-31T08:46:50.219Z,47.02
2019-03-31T08:49:22.789Z,46.88
2019-03-31T08:51:56.026Z,46.78
2019-03-31T08:54:28.564Z,46.71
2019-03-31T08:57:01.683Z,46.68
2019-03-31T08:59:34.587Z,46.61
2019-03-31T09:02:29.039Z,46.50
2019-03-31T09:05:02.442Z,46.45
2019-03-31T09:07:35.546Z,46.33
2019-03-31T09:10:09.650Z,46.30
2019-03-31T09:12:42.436Z,46.23
2019-03-31T09:15:15.336Z,46.07
2019-03-31T09:17:47.886Z,45.97
2019-03-31T09:20:21.950Z,45.92
2019-03-31T09:22:55.568Z,45.86
2019-03-31T09:25:28.129Z,45.74
2019-03-31T09:28:01.299Z,45.65
2019-03-31T09:30:33.885Z,45.54
2019-03-31T09:33:06.666Z,45.42
2019-03-31T09:35:47.349Z,45.15
2019-03-31T09:38:20.579Z,45.07
2019-03-31T09:40:53.108Z,44.90
2019-03-31T09:43:25.680Z,44.85
2019-03-31T09:45:59.523Z,44.79
2019-03-31T09:48:32.390Z,44.72
2019-03-31T09:51:05.078Z,44.57
2019-03-31T09:53:38.287Z,44.54
2019-03-31T09:56:11.004Z,44.44
2019-03-31T09:58:43.534Z,44.10
2019-03-31T10:01:16.113Z,44.00
2019-03-31T10:03:49.768Z,43.86
2019-03-31T10:06:30.184Z,43.86
2019-03-31T10:08:58.067Z,43.74
2019-03-31T10:11:30.558Z,43.64
2019-03-31T10:14:03.242Z,43.66
2019-03-31T10:16:35.816Z,43.57
2019-03-31T10:19:08.427Z,43.49
2019-03-31T10:21:40.948Z,43.43
2019-03-31T10:24:14.245Z,43.25
2019-03-31T10:26:46.904Z,43.20
2019-03-31T10:29:19.535Z,43.04
2019-03-31T10:31:52.145Z,42.80
2019-03-31T10:34:24.638Z,42.62
2019-03-31T10:36:58.140Z,42.44
2019-03-31T10:39:31.403Z,42.32
2019-03-31T10:42:03.992Z,41.94
2019-03-31T10:44:36.570Z,41.77
2019-03-31T10:47:09.258Z,41.66
2019-03-31T10:49:41.923Z,41.49
2019-03-31T10:52:14.501Z,41.39
2019-03-31T10:54:48.002Z,41.19
2019-03-31T10:57:20.540Z,41.03
2019-03-31T10:59:53.456Z,40.70
2019-03-31T11:02:28.261Z,40.41
2019-03-31T11:05:01.055Z,40.30
2019-03-31T11:07:33.749Z,40.25
2019-03-31T11:10:07.369Z,39.91
2019-03-31T11:12:39.924Z,39.72
2019-03-31T11:15:12.521Z,39.31
2019-03-31T11:17:45.062Z,39.16
2019-03-31T11:20:17.721Z,38.97
2019-03-31T11:23:00.867Z,38.71
2019-03-31T11:25:34.591Z,38.58
2019-03-31T11:28:07.196Z,38.29
2019-03-31T11:30:41.415Z,38.00
2019-03-31T11:33:14.050Z,37.86
2019-03-31T11:35:47.162Z,37.59
2019-03-31T11:38:20.325Z,37.57
2019-03-31T11:40:53.881Z,37.28
2019-03-31T11:43:26.497Z,37.14
2019-03-31T11:45:59.209Z,36.98
2019-03-31T11:48:31.689Z,36.66
2019-03-31T11:51:04.257Z,36.43
2019-03-31T11:53:36.838Z,36.23
2019-03-31T11:56:10.084Z,35.70
2019-03-31T11:58:42.765Z,35.50
2019-03-31T12:01:15.621Z,35.40
2019-03-31T12:03:48.182Z,35.49
2019-03-31T12:06:20.848Z,35.21
2019-03-31T12:08:53.626Z,35.07
2019-03-31T12:11:26.138Z,34.81
2019-03-31T12:13:58.988Z,34.44
2019-03-31T12:16:31.553Z,33.78
2019-03-31T12:19:04.471Z,33.46
2019-03-31T12:21:37.038Z,33.27
2019-03-31T12:24:11.363Z,32.66
2019-03-31T12:26:43.970Z,32.53
2019-03-31T12:29:17.059Z,32.76
2019-03-31T12:31:50.350Z,32.82
2019-03-31T12:34:23.063Z,32.63
2019-03-31T12:36:55.593Z,32.54
2019-03-31T12:39:28.337Z,32.61
2019-03-31T12:42:01.109Z,32.38
2019-03-31T12:44:34.607Z,32.20
2019-03-31T12:47:07.350Z,31.63
2019-03-31T12:49:39.897Z,31.81
2019-03-31T12:52:12.491Z,31.69
2019-03-31T12:54:45.046Z,31.55
2019-03-31T12:57:17.531Z,31.65
2019-03-31T12:59:50.782Z,31.55
2019-03-31T13:02:23.259Z,31.54
2019-03-31T13:04:55.984Z,31.52
2019-03-31T13:07:28.806Z,31.43
2019-03-31T13:10:01.414Z,30.93
2019-03-31T13:12:35.133Z,30.75
2019-03-31T13:15:08.916Z,30.70
2019-03-31T13:17:41.431Z,29.79
2019-03-31T13:20:14.474Z,30.11
2019-03-31T13:22:47.012Z,30.16
2019-03-31T13:25:19.558Z,30.19
2019-03-31T13:27:52.051Z,30.22
2019-03-31T13:30:25.588Z,30.17
2019-03-31T13:32:58.131Z,30.10
2019-03-31T13:35:30.713Z,30.11
2019-03-31T13:38:10.813Z,29.94
2019-03-31T13:40:37.592Z,29.89
2019-03-31T13:43:10.139Z,29.78
2019-03-31T13:45:43.476Z,29.96
2019-03-31T13:48:16.019Z,29.85
2019-03-31T13:50:48.567Z,29.67
2019-03-31T13:53:21.024Z,29.41
2019-03-31T13:55:53.613Z,29.18
2019-03-31T13:58:28.502Z,29.10
2019-03-31T14:01:01.347Z,29.18
2019-03-31T14:03:33.850Z,29.33
2019-03-31T14:06:06.828Z,29.29
2019-03-31T14:08:39.383Z,29.13
2019-03-31T14:11:12.421Z,29.16
2019-03-31T14:13:44.970Z,29.17
2019-03-31T14:16:18.127Z,29.11
2019-03-31T14:18:50.827Z,29.18
2019-03-31T14:21:23.435Z,29.10
2019-03-31T14:23:55.953Z,29.06
2019-03-31T14:26:28.515Z,28.93
2019-03-31T14:29:01.376Z,28.88
2019-03-31T14:31:33.970Z,28.68
2019-03-31T14:34:07.052Z,28.60
2019-03-31T14:36:39.599Z,28.52
2019-03-31T14:39:12.337Z,28.55
2019-03-31T14:41:46.193Z,28.48
2019-03-31T14:44:18.733Z,28.40
2019-03-31T14:46:51.221Z,28.28
2019-03-31T14:49:25.956Z,28.17
2019-03-31T14:52:01.296Z,28.14
2019-03-31T14:54:33.067Z,28.07
2019-03-31T14:57:05.648Z,28.19
2019-03-31T14:59:38.326Z,28.01
2019-03-31T15:02:10.880Z,27.93
2019-03-31T15:04:43.987Z,27.88
2019-03-31T15:07:16.831Z,27.92
2019-03-31T15:09:49.907Z,28.02
2019-03-31T15:12:22.439Z,28.01
2019-03-31T15:14:55.187Z,28.02
2019-03-31T15:17:28.294Z,28.07
2019-03-31T15:20:00.896Z,28.11
2019-03-31T15:22:33.427Z,28.09
2019-03-31T15:25:06.456Z,27.92
2019-03-31T15:27:39.123Z,27.90
2019-03-31T15:30:12.111Z,27.77
2019-03-31T15:32:45.055Z,27.82
2019-03-31T15:35:17.646Z,27.68
2019-03-31T15:37:50.231Z,27.82
2019-03-31T15:40:23.238Z,27.71
2019-03-31T15:42:55.778Z,27.55
2019-03-31T15:45:28.725Z,27.59
2019-03-31T15:48:01.316Z,27.59
2019-03-31T15:50:34.036Z,27.47
2019-03-31T15:53:06.640Z,27.47
2019-03-31T15:55:39.618Z,27.45
2019-03-31T15:58:12.311Z,27.50
2019-03-31T16:00:45.116Z,27.59
2019-03-31T16:03:17.879Z,27.40
2019-03-31T16:05:50.716Z,27.43
2019-03-31T16:08:22.459Z,27.48
2019-03-31T16:10:54.652Z,27.44
2019-03-31T16:13:26.490Z,27.50
2019-03-31T16:15:58.361Z,27.55
2019-03-31T16:18:30.065Z,27.54
2019-03-31T16:21:01.911Z,27.40
2019-03-31T16:23:33.833Z,27.31
2019-03-31T16:26:06.465Z,27.26
2019-03-31T16:28:38.197Z,27.20
2019-03-31T16:31:09.928Z,27.13
2019-03-31T16:33:41.703Z,27.07
2019-03-31T16:36:13.645Z,27.10
2019-03-31T16:38:45.741Z,27.07
2019-03-31T16:41:17.640Z,27.04
2019-03-31T16:43:49.863Z,27.08
2019-03-31T16:46:21.588Z,26.98
2019-03-31T16:48:53.436Z,26.97
2019-03-31T16:51:25.344Z,26.99
2019-03-31T16:53:57.083Z,26.94
2019-03-31T16:56:28.814Z,26.96
2019-03-31T16:59:03.666Z,26.89
2019-03-31T17:01:35.454Z,26.81
2019-03-31T17:06:39.687Z,26.75
2019-03-31T17:09:11.544Z,26.80
2019-03-31T17:11:43.583Z,26.83
2019-03-31T17:14:15.942Z,26.90
2019-03-31T17:16:47.848Z,26.93
2019-03-31T17:19:19.655Z,27.10
2019-03-31T17:21:51.454Z,27.22
2019-03-31T17:24:23.869Z,27.32
2019-03-31T17:26:55.613Z,27.41
2019-03-31T17:29:28.441Z,27.50
2019-03-31T17:32:00.166Z,27.61
2019-03-31T17:34:31.872Z,27.72
2019-03-31T17:37:03.691Z,27.81
2019-03-31T17:39:35.433Z,27.90
2019-03-31T17:42:07.460Z,27.96
2019-03-31T17:44:39.998Z,28.03
2019-03-31T17:47:11.895Z,28.12
2019-03-31T17:49:43.688Z,28.15
2019-03-31T17:52:15.452Z,28.17
2019-03-31T17:54:47.354Z,28.26
2019-03-31T17:57:19.171Z,28.29
2019-03-31T17:59:51.560Z,28.34
2019-03-31T18:02:23.674Z,28.38
2019-03-31T18:04:55.717Z,28.44
2019-03-31T18:07:27.828Z,28.50
2019-03-31T18:09:59.585Z,28.56
2019-03-31T18:12:31.268Z,28.62
2019-03-31T18:15:04.062Z,28.68
2019-03-31T18:17:35.819Z,28.76
2019-03-31T18:20:09.453Z,28.86
2019-03-31T18:22:41.761Z,28.97
2019-03-31T18:25:13.771Z,29.11
2019-03-31T18:27:46.140Z,29.26
2019-03-31T18:30:18.552Z,29.38
2019-03-31T18:32:50.595Z,29.44
2019-03-31T18:35:22.508Z,29.57
2019-03-31T18:37:54.237Z,29.69
2019-03-31T18:40:34.954Z,29.80
2019-03-31T18:42:59.328Z,29.90
2019-03-31T18:45:31.083Z,29.97
2019-03-31T18:48:03.486Z,30.09
2019-03-31T18:50:35.403Z,30.22
2019-03-31T18:53:11.293Z,30.39
2019-03-31T18:55:50.283Z,30.59
2019-03-31T18:58:40.884Z,30.70
2019-03-31T19:01:46.413Z,30.77
2019-03-31T19:04:36.958Z,30.76
2019-03-31T19:07:27.201Z,30.80
2019-03-31T19:10:07.678Z,30.87
2019-03-31T19:12:56.660Z,30.94
2019-03-31T19:15:45.914Z,31.07
2019-03-31T19:18:35.645Z,31.15
2019-03-31T19:21:22.747Z,31.28
2019-03-31T19:24:06.492Z,31.44
2019-03-31T19:26:54.828Z,31.61
2019-03-31T19:29:39.051Z,31.74
2019-03-31T19:32:18.850Z,31.94
2019-03-31T19:35:09.514Z,32.11
2019-03-31T19:37:58.761Z,32.30
2019-03-31T19:40:43.126Z,32.37
2019-03-31T19:43:30.484Z,32.58
2019-03-31T19:46:19.891Z,32.73
2019-03-31T19:49:26.112Z,32.93
2019-03-31T19:52:16.833Z,33.08
2019-03-31T19:55:00.381Z,33.20
2019-03-31T19:57:49.519Z,33.40
2019-03-31T20:00:46.924Z,33.65
2019-03-31T20:03:44.000Z,33.79
2019-03-31T20:06:26.525Z,33.91
2019-03-31T20:09:19.881Z,34.09
2019-03-31T20:12:10.519Z,34.30
2019-03-31T20:14:50.218Z,34.55
2019-03-31T20:17:40.795Z,34.75
2019-03-31T20:20:37.485Z,34.98
2019-03-31T20:23:34.071Z,35.15
2019-03-31T20:26:21.768Z,35.26
2019-03-31T20:29:18.737Z,35.35
2019-03-31T20:31:58.691Z,35.63
2019-03-31T20:34:38.892Z,35.74
2019-03-31T20:37:24.665Z,35.82
2019-03-31T20:40:13.895Z,35.96
2019-03-31T20:43:08.215Z,36.08
2019-03-31T20:45:39.940Z,36.03
2019-03-31T20:48:12.135Z,36.09
2019-03-31T20:50:44.095Z,36.17
2019-03-31T20:53:16.067Z,36.20
2019-03-31T20:55:47.992Z,36.27
2019-03-31T20:58:19.686Z,36.26
2019-03-31T21:00:51.447Z,36.38
2019-03-31T21:03:23.894Z,36.56
2019-03-31T21:05:56.697Z,36.65
2019-03-31T21:08:28.939Z,36.93
2019-03-31T21:11:00.901Z,37.05
2019-03-31T21:13:32.578Z,37.32
2019-03-31T21:16:04.331Z,37.55
2019-03-31T21:18:36.723Z,37.72
2019-03-31T21:21:08.525Z,37.86
2019-03-31T21:23:40.329Z,38.01
2019-03-31T21:26:12.010Z,38.30
2019-03-31T21:28:43.975Z,38.46
2019-03-31T21:31:15.919Z,38.56
2019-03-31T21:33:48.359Z,38.71
2019-03-31T21:36:20.113Z,38.84
2019-03-31T21:38:51.896Z,38.97
2019-03-31T21:41:23.759Z,39.07
2019-03-31T21:43:55.673Z,39.18
2019-03-31T21:46:27.775Z,39.32
2019-03-31T21:49:00.348Z,39.48
2019-03-31T21:51:32.069Z,39.49
2019-03-31T21:54:03.859Z,39.64
2019-03-31T21:56:35.499Z,39.74
2019-03-31T21:59:07.182Z,39.86
2019-03-31T22:01:38.976Z,39.89
2019-03-31T22:04:12.943Z,40.10
2019-03-31T22:06:45.410Z,40.19
2019-03-31T22:09:17.197Z,40.25
2019-03-31T22:11:48.938Z,40.26
2019-03-31T22:14:20.723Z,40.53
2019-03-31T22:16:52.407Z,40.42
2019-03-31T22:19:26.316Z,40.60
2019-03-31T22:21:58.005Z,40.63
2019-03-31T22:24:30.166Z,40.82
2019-03-31T22:27:01.843Z,40.83
2019-03-31T22:29:33.556Z,40.92
2019-03-31T22:32:05.239Z,40.98
2019-03-31T22:34:37.527Z,41.10
2019-03-31T22:37:09.323Z,41.11
2019-03-31T22:39:41.149Z,41.14
2019-03-31T22:42:12.807Z,41.12
2019-03-31T22:44:44.507Z,41.31
2019-03-31T22:47:16.155Z,41.33
2019-03-31T22:49:48.477Z,41.44
2019-03-31T22:52:20.286Z,41.40
2019-03-31T22:54:51.968Z,41.43
2019-03-31T22:57:23.651Z,41.44
2019-03-31T22:59:55.366Z,41.44
2019-03-31T23:02:27.922Z,41.45
2019-03-31T23:05:00.402Z,41.44
2019-03-31T23:07:32.165Z,41.49
2019-03-31T23:10:03.918Z,41.56
2019-03-31T23:12:35.586Z,41.53
2019-03-31T23:15:07.288Z,41.59
2019-03-31T23:17:38.904Z,41.58
2019-03-31T23:20:11.346Z,41.55
2019-03-31T23:22:42.982Z,41.54
2019-03-31T23:25:14.980Z,41.61
2019-03-31T23:27:46.590Z,41.64
2019-03-31T23:30:18.722Z,41.61
2019-03-31T23:32:50.352Z,41.68
2019-03-31T23:35:22.584Z,41.80
2019-03-31T23:37:54.230Z,41.82
2019-03-31T23:40:26.281Z,42.06
2019-03-31T23:42:57.890Z,42.20
2019-03-31T23:45:32.275Z,42.21
2019-03-31T23:48:04.059Z,42.38
2019-03-31T23:50:35.735Z,42.33
2019-03-31T23:53:07.824Z,42.40
2019-03-31T23:55:39.596Z,42.43
2019-03-31T23:58:11.280Z,42.53
